Time;durP1;ratioP1;P1;durP2;ratioP2;P2;SDS_P1;SDS_P2;PMS_P1;PMS_P2;Temp;Humidity;BMP_temperature;BMP_pressure;BME280_temperature;BME280_humidity;BME280_pressure;Samples;Min_cycle;Max_cycle;Signal;HPM_P1;HPM_P2
2023/12/03 00:02:23;;;;;;;5.60;4.47;;;-3.10;99.90;;;;;;5073810;28;20120;-37
2023/12/03 00:04:52;;;;;;;3.55;3.25;;;-3.10;99.90;;;;;;5077059;28;20054;-40
2023/12/03 00:07:18;;;;;;;;;;;-3.10;99.90;;;;;;5076426;28;20124;-35
2023/12/03 00:09:45;;;;;;;5.45;4.47;;;-3.10;99.90;;;;;;5075626;28;20333;-32
2023/12/03 00:12:11;;;;;;;4.70;3.75;;;-3.00;99.90;;;;;;5073266;28;20500;-32
2023/12/03 00:14:37;;;;;;;5.00;3.33;;;-3.00;99.90;;;;;;5068060;28;20033;-32
2023/12/03 00:17:02;;;;;;;4.15;3.50;;;-3.00;99.90;;;;;;5076438;28;20375;-39
2023/12/03 00:19:28;;;;;;;6.03;4.57;;;-3.00;99.90;;;;;;5076991;28;20077;-40
2023/12/03 00:21:54;;;;;;;6.75;5.38;;;-3.00;99.90;;;;;;5076014;28;20101;-38
2023/12/03 00:24:20;;;;;;;4.68;3.67;;;-3.00;99.90;;;;;;5076581;28;20028;-38
2023/12/03 00:26:46;;;;;;;4.85;4.40;;;-3.00;99.90;;;;;;5078766;28;20443;-39
2023/12/03 00:29:12;;;;;;;4.45;3.75;;;-3.00;99.90;;;;;;5077192;28;20025;-40
2023/12/03 00:31:37;;;;;;;8.85;4.50;;;-3.00;99.90;;;;;;5072928;27;20025;-40
2023/12/03 00:34:03;;;;;;;7.20;5.60;;;-3.00;99.90;;;;;;5078092;28;20502;-40
2023/12/03 00:36:29;;;;;;;6.88;5.03;;;-3.10;99.90;;;;;;5082989;28;20035;-38
2023/12/03 00:38:54;;;;;;;5.00;4.50;;;-3.10;99.90;;;;;;5079352;28;20029;-40
2023/12/03 00:41:20;;;;;;;6.30;4.75;;;-3.00;99.90;;;;;;5078341;28;20111;-37
2023/12/03 00:43:46;;;;;;;2.95;2.83;;;-3.00;99.90;;;;;;5075084;28;20044;-40
2023/12/03 00:46:11;;;;;;;7.25;6.10;;;-3.10;99.90;;;;;;5082067;28;20028;-39
2023/12/03 00:48:38;;;;;;;6.70;5.00;;;-3.20;99.90;;;;;;5076388;28;20066;-40
2023/12/03 00:51:04;;;;;;;8.20;4.93;;;-3.20;99.90;;;;;;5075532;28;20481;-38
2023/12/03 00:53:30;;;;;;;6.60;5.22;;;-3.20;99.90;;;;;;5081386;28;20115;-38
2023/12/03 00:55:56;;;;;;;6.32;4.88;;;-3.20;99.90;;;;;;5079389;28;20382;-39
2023/12/03 00:58:21;;;;;;;3.90;3.60;;;-3.10;99.90;;;;;;5080866;28;20052;-36
2023/12/03 01:00:47;;;;;;;9.70;5.65;;;-3.20;99.90;;;;;;5081766;27;20665;-38
2023/12/03 01:03:12;;;;;;;8.40;5.47;;;-3.20;99.90;;;;;;5079262;28;20020;-39
2023/12/03 01:05:38;;;;;;;5.35;4.55;;;-3.20;99.90;;;;;;5082695;28;20496;-40
2023/12/03 01:08:04;;;;;;;5.53;4.60;;;-3.20;99.90;;;;;;5086327;28;20406;-39
2023/12/03 01:10:30;;;;;;;4.85;4.50;;;-3.20;99.90;;;;;;5077815;28;20024;-39
2023/12/03 01:12:56;;;;;;;7.72;5.28;;;-3.30;99.90;;;;;;5081141;28;20115;-40
2023/12/03 01:15:21;;;;;;;7.93;4.50;;;-3.30;99.90;;;;;;5078633;28;20107;-35
2023/12/03 01:17:47;;;;;;;6.18;4.88;;;-3.30;99.90;;;;;;5078388;28;20039;-40
2023/12/03 01:20:12;;;;;;;6.43;4.53;;;-3.40;99.90;;;;;;5086240;28;20056;-36
2023/12/03 01:22:38;;;;;;;6.55;4.90;;;-3.30;99.90;;;;;;5081829;28;20176;-40
2023/12/03 01:25:04;;;;;;;4.40;3.97;;;-3.30;99.90;;;;;;5079942;28;20086;-36
2023/12/03 01:27:29;;;;;;;5.03;3.80;;;-3.30;99.90;;;;;;5078683;28;20031;-37
2023/12/03 01:29:55;;;;;;;8.85;5.43;;;-3.40;99.90;;;;;;5074900;28;20028;-42
2023/12/03 01:32:21;;;;;;;6.07;5.03;;;-3.40;99.90;;;;;;5079573;28;20397;-40
2023/12/03 01:34:46;;;;;;;6.55;5.18;;;-3.50;99.90;;;;;;5073888;28;20043;-40
2023/12/03 01:37:12;;;;;;;6.30;4.15;;;-3.60;99.90;;;;;;5084645;28;20496;-40
2023/12/03 01:39:37;;;;;;;4.70;4.18;;;-3.60;99.90;;;;;;5075694;28;20064;-41
2023/12/03 01:42:03;;;;;;;5.53;4.30;;;-3.70;99.90;;;;;;5083392;28;20024;-43
2023/12/03 01:44:29;;;;;;;6.03;4.53;;;-3.70;99.90;;;;;;5072312;28;20579;-38
2023/12/03 01:46:57;;;;;;;4.35;3.72;;;-3.60;99.90;;;;;;5082093;28;20482;-41
2023/12/03 01:49:23;;;;;;;7.50;5.40;;;-3.60;99.90;;;;;;5076887;28;20047;-36
2023/12/03 01:51:49;;;;;;;4.57;4.15;;;-3.50;99.90;;;;;;5081705;28;20056;-41
2023/12/03 01:54:15;;;;;;;5.03;4.47;;;-3.60;99.90;;;;;;5080582;28;20025;-39
2023/12/03 01:56:40;;;;;;;5.47;4.75;;;-3.60;99.90;;;;;;5087908;28;20501;-39
2023/12/03 01:59:06;;;;;;;7.28;4.53;;;-3.70;99.90;;;;;;5076344;28;20389;-40
2023/12/03 02:01:32;;;;;;;6.35;4.18;;;-3.70;99.90;;;;;;5071332;28;20524;-42
2023/12/03 02:03:58;;;;;;;7.97;5.03;;;-3.80;99.90;;;;;;5074561;28;20033;-38
2023/12/03 02:06:24;;;;;;;5.15;4.15;;;-3.80;99.90;;;;;;5078731;28;20556;-35
2023/12/03 02:08:51;;;;;;;4.10;3.78;;;-3.80;99.90;;;;;;5074295;28;20048;-41
2023/12/03 02:11:17;;;;;;;3.70;3.40;;;-3.80;99.90;;;;;;5077182;28;20020;-34
2023/12/03 02:13:43;;;;;;;4.32;3.92;;;-3.90;99.90;;;;;;5080175;28;20552;-41
2023/12/03 02:16:09;;;;;;;4.38;3.67;;;-4.00;99.90;;;;;;5079369;28;20054;-42
2023/12/03 02:18:35;;;;;;;4.40;3.58;;;-4.00;99.90;;;;;;5086942;28;20302;-31
2023/12/03 02:21:01;;;;;;;6.05;5.05;;;-3.90;99.90;;;;;;5075507;28;20048;-32
2023/12/03 02:23:28;;;;;;;8.48;5.22;;;-3.80;99.90;;;;;;5089585;28;20027;-32
2023/12/03 02:25:54;;;;;;;8.05;5.30;;;-3.80;99.90;;;;;;5074797;28;20035;-30
2023/12/03 02:28:19;;;;;;;7.57;5.47;;;-3.80;99.90;;;;;;5088876;28;20032;-30
2023/12/03 02:30:45;;;;;;;3.47;3.22;;;-3.80;99.90;;;;;;5085993;27;20036;-32
2023/12/03 02:33:10;;;;;;;8.63;5.28;;;-3.80;99.90;;;;;;5085051;28;20028;-31
2023/12/03 02:35:36;;;;;;;4.75;4.25;;;-3.80;99.90;;;;;;5080761;28;20029;-31
2023/12/03 02:38:02;;;;;;;6.60;4.88;;;-3.70;99.90;;;;;;5077235;28;20034;-33
2023/12/03 02:40:32;;;;;;;5.75;5.25;;;-3.70;99.90;;;;;;5078315;28;20020;-34
2023/12/03 02:42:58;;;;;;;7.20;5.70;;;-3.70;99.90;;;;;;5076795;28;20032;-34
2023/12/03 02:45:24;;;;;;;4.05;3.75;;;-3.70;99.90;;;;;;5080018;28;20024;-33
2023/12/03 02:47:50;;;;;;;6.63;5.07;;;-3.60;99.90;;;;;;5071923;28;20390;-32
2023/12/03 02:50:15;;;;;;;6.10;5.55;;;-3.60;99.90;;;;;;5075366;28;20114;-34
2023/12/03 02:52:41;;;;;;;2.72;2.63;;;-3.60;99.90;;;;;;5078514;28;20022;-32
2023/12/03 02:55:08;;;;;;;6.35;5.03;;;-3.70;99.90;;;;;;5071348;28;20139;-33
2023/12/03 02:57:34;;;;;;;5.07;4.57;;;-3.60;99.90;;;;;;5074022;28;20036;-33
2023/12/03 03:00:00;;;;;;;5.20;4.10;;;-3.60;99.90;;;;;;5071569;28;20533;-33
2023/12/03 03:02:25;;;;;;;4.55;3.65;;;-3.70;99.90;;;;;;5083521;28;20067;-34
2023/12/03 03:04:51;;;;;;;5.82;4.88;;;-3.70;99.90;;;;;;5083066;28;20081;-32
2023/12/03 03:07:16;;;;;;;6.97;6.00;;;-3.80;99.90;;;;;;5083203;28;20441;-35
2023/12/03 03:09:42;;;;;;;6.25;5.47;;;-3.70;99.90;;;;;;5077141;28;20504;-33
2023/12/03 03:12:08;;;;;;;2.95;2.70;;;-3.70;99.90;;;;;;5080942;28;20032;-34
2023/12/03 03:14:33;;;;;;;3.65;3.45;;;-3.70;99.90;;;;;;5071266;28;20084;-33
2023/12/03 03:16:59;;;;;;;5.38;4.35;;;-3.90;99.90;;;;;;5081224;28;20114;-32
2023/12/03 03:19:24;;;;;;;7.45;5.28;;;-4.00;99.90;;;;;;5077070;28;20028;-35
2023/12/03 03:21:50;;;;;;;5.25;4.50;;;-3.90;99.90;;;;;;5073283;28;20036;-32
2023/12/03 03:24:15;;;;;;;8.40;5.95;;;-3.90;99.90;;;;;;5076154;28;20039;-35
2023/12/03 03:26:41;;;;;;;6.30;5.40;;;-3.80;99.90;;;;;;5071761;28;20271;-32
2023/12/03 03:29:07;;;;;;;6.38;4.70;;;-3.80;99.90;;;;;;5077755;28;20024;-33
2023/12/03 03:31:32;;;;;;;9.77;6.55;;;-3.70;99.90;;;;;;5072624;27;20028;-31
2023/12/03 03:33:58;;;;;;;11.45;7.95;;;-3.70;99.90;;;;;;5078795;28;20032;-32
2023/12/03 03:36:24;;;;;;;8.05;5.97;;;-3.70;99.90;;;;;;5077319;28;20119;-32
2023/12/03 03:38:50;;;;;;;12.80;5.70;;;-3.70;99.90;;;;;;5079259;28;20444;-38
2023/12/03 03:41:16;;;;;;;10.93;6.30;;;-3.80;99.90;;;;;;5108557;27;20033;-35
2023/12/03 03:43:41;;;;;;;6.88;5.50;;;-3.70;99.90;;;;;;5080758;28;20095;-40
2023/12/03 03:46:09;;;;;;;7.03;5.65;;;-3.70;99.90;;;;;;5075775;28;20457;-39
2023/12/03 03:48:35;;;;;;;8.23;5.07;;;-3.60;99.90;;;;;;5076003;28;20032;-30
2023/12/03 03:51:01;;;;;;;5.30;4.65;;;-3.60;99.90;;;;;;5080921;28;20032;-30
2023/12/03 03:53:27;;;;;;;9.07;6.47;;;-3.60;99.90;;;;;;5077338;28;20037;-31
2023/12/03 03:55:52;;;;;;;4.85;3.92;;;-3.60;99.90;;;;;;5074436;28;20039;-29
2023/12/03 03:58:18;;;;;;;6.85;5.65;;;-3.60;99.90;;;;;;5075982;28;20059;-39
2023/12/03 04:00:44;;;;;;;8.13;6.22;;;-3.60;99.90;;;;;;5073816;27;20383;-39
2023/12/03 04:03:09;;;;;;;7.88;5.03;;;-3.60;99.90;;;;;;5079458;28;20020;-38
2023/12/03 04:05:35;;;;;;;7.80;5.25;;;-3.60;99.90;;;;;;5075932;28;20592;-39
2023/12/03 04:08:01;;;;;;;6.53;5.90;;;-3.60;99.90;;;;;;5078358;28;20031;-39
2023/12/03 04:10:26;;;;;;;7.57;5.47;;;-3.50;99.90;;;;;;5076968;28;20024;-37
2023/12/03 04:12:52;;;;;;;10.90;5.82;;;-3.50;99.90;;;;;;5077217;28;20481;-36
2023/12/03 04:15:18;;;;;;;8.90;6.38;;;-3.50;99.90;;;;;;5082726;28;20024;-36
2023/12/03 04:17:44;;;;;;;9.30;6.85;;;-3.50;99.90;;;;;;5078572;28;20040;-37
2023/12/03 04:20:10;;;;;;;12.48;7.07;;;-3.40;99.90;;;;;;5072479;28;20040;-38
2023/12/03 04:22:37;;;;;;;7.50;6.07;;;-3.20;99.90;;;;;;5073088;28;20024;-39
2023/12/03 04:25:03;;;;;;;8.50;6.38;;;-3.30;99.90;;;;;;5076520;28;20081;-39
2023/12/03 04:27:28;;;;;;;7.20;4.47;;;-3.30;99.90;;;;;;5073876;28;20033;-39
2023/12/03 04:29:54;;;;;;;8.93;5.15;;;-3.30;99.90;;;;;;5076939;28;20111;-39
2023/12/03 04:32:19;;;;;;;5.80;5.15;;;-3.30;99.90;;;;;;5074388;27;20024;-39
2023/12/03 04:34:45;;;;;;;9.23;5.80;;;-3.30;99.90;;;;;;5077180;28;20025;-39
2023/12/03 04:37:10;;;;;;;10.77;7.40;;;-3.30;99.90;;;;;;5080135;28;20028;-40
2023/12/03 04:39:36;;;;;;;7.45;4.95;;;-3.30;99.90;;;;;;5069436;28;20060;-40
2023/12/03 04:42:02;;;;;;;6.13;5.22;;;-3.30;99.90;;;;;;5083870;28;20043;-40
2023/12/03 04:44:27;;;;;;;9.70;6.00;;;-3.30;99.90;;;;;;5075889;28;20016;-40
2023/12/03 04:46:53;;;;;;;7.88;6.20;;;-3.30;99.90;;;;;;5079349;28;20028;-34
2023/12/03 04:49:19;;;;;;;14.15;7.90;;;-3.30;99.90;;;;;;5078726;28;20111;-32
2023/12/03 04:51:44;;;;;;;6.03;5.50;;;-3.30;99.90;;;;;;5074381;28;20034;-32
2023/12/03 04:54:10;;;;;;;11.80;7.00;;;-3.30;99.90;;;;;;5083602;28;20024;-32
2023/12/03 04:56:35;;;;;;;7.30;5.28;;;-3.20;99.90;;;;;;5075317;28;20104;-34
2023/12/03 04:59:01;;;;;;;8.48;5.70;;;-3.20;99.90;;;;;;5073907;28;20111;-32
2023/12/03 05:01:27;;;;;;;6.88;4.85;;;-3.20;99.90;;;;;;5073138;28;20032;-32
2023/12/03 05:03:52;;;;;;;7.90;5.80;;;-3.30;99.90;;;;;;5077638;28;20048;-32
2023/12/03 05:06:18;;;;;;;10.27;6.18;;;-3.30;99.90;;;;;;5074056;28;20025;-32
2023/12/03 05:08:44;;;;;;;9.00;5.00;;;-3.30;99.90;;;;;;5076393;28;20085;-32
2023/12/03 05:11:09;;;;;;;8.18;6.32;;;-3.40;99.90;;;;;;5075059;28;20470;-32
2023/12/03 05:13:35;;;;;;;5.90;4.75;;;-3.40;99.90;;;;;;5076839;28;20171;-33
2023/12/03 05:16:02;;;;;;;8.13;5.57;;;-3.30;99.90;;;;;;5080283;28;20032;-33
2023/12/03 05:18:27;;;;;;;15.13;9.70;;;-3.30;99.90;;;;;;5080149;28;20024;-32
2023/12/03 05:20:53;;;;;;;16.17;10.48;;;-3.30;99.90;;;;;;5080594;28;20397;-35
2023/12/03 05:23:18;;;;;;;7.45;6.13;;;-3.20;99.90;;;;;;5080827;28;20739;-34
2023/12/03 05:25:44;;;;;;;9.73;5.57;;;-3.20;99.90;;;;;;5076038;28;20040;-32
2023/12/03 05:28:10;;;;;;;10.20;6.65;;;-3.30;99.90;;;;;;5075943;28;20077;-34
2023/12/03 05:30:35;;;;;;;11.50;8.68;;;-3.30;99.90;;;;;;5082891;27;20683;-32
2023/12/03 05:33:01;;;;;;;10.38;6.80;;;-3.30;99.90;;;;;;5075112;28;20036;-32
2023/12/03 05:35:26;;;;;;;8.38;5.57;;;-3.40;99.90;;;;;;5080542;28;20551;-32
2023/12/03 05:37:52;;;;;;;6.22;5.68;;;-3.30;99.90;;;;;;5073043;28;20031;-32
2023/12/03 05:40:18;;;;;;;6.82;5.78;;;-3.30;99.90;;;;;;5078543;28;20432;-37
2023/12/03 05:42:43;;;;;;;8.45;5.03;;;-3.30;99.90;;;;;;5072925;28;20635;-32
2023/12/03 05:45:09;;;;;;;8.80;7.03;;;-3.30;99.90;;;;;;5083055;28;20016;-32
2023/12/03 05:47:35;;;;;;;7.80;6.10;;;-3.40;99.90;;;;;;5079953;28;20482;-34
2023/12/03 05:50:02;;;;;;;7.47;4.85;;;-3.40;99.90;;;;;;5080065;28;20058;-32
2023/12/03 05:52:28;;;;;;;5.90;5.25;;;-3.40;99.90;;;;;;5074315;28;20036;-33
2023/12/03 05:54:54;;;;;;;8.43;6.18;;;-3.40;99.90;;;;;;5075381;28;20028;-37
2023/12/03 05:57:20;;;;;;;8.63;5.85;;;-3.40;99.90;;;;;;5080973;28;20796;-37
2023/12/03 05:59:46;;;;;;;12.02;7.05;;;-3.40;99.90;;;;;;5083530;28;20103;-40
2023/12/03 06:02:15;;;;;;;10.13;5.28;;;-3.40;99.90;;;;;;5079144;28;20116;-39
2023/12/03 06:04:40;;;;;;;;;;;-3.40;99.90;;;;;;5077920;28;20032;-41
2023/12/03 06:07:06;;;;;;;7.82;4.93;;;-3.40;99.90;;;;;;5078085;28;19938;-40
2023/12/03 06:09:32;;;;;;;4.93;4.45;;;-3.30;99.90;;;;;;5078422;28;20024;-39
2023/12/03 06:11:58;;;;;;;7.43;5.85;;;-3.40;99.90;;;;;;5080574;28;20020;-38
2023/12/03 06:14:23;;;;;;;7.15;5.72;;;-3.40;99.90;;;;;;5079180;28;20027;-35
2023/12/03 06:16:49;;;;;;;8.30;5.28;;;-3.40;99.90;;;;;;5082873;28;20054;-30
2023/12/03 06:19:15;;;;;;;7.47;5.32;;;-3.30;99.90;;;;;;5076486;28;20036;-30
2023/12/03 06:21:40;;;;;;;9.82;6.45;;;-3.40;99.90;;;;;;5077508;28;20055;-30
2023/12/03 06:24:06;;;;;;;8.23;6.13;;;-3.40;99.90;;;;;;5075605;28;20020;-31
2023/12/03 06:26:32;;;;;;;8.98;6.28;;;-3.40;99.90;;;;;;5080349;28;20027;-31
2023/12/03 06:28:58;;;;;;;7.88;6.03;;;-3.30;99.90;;;;;;5088562;28;20497;-30
2023/12/03 06:31:23;;;;;;;10.43;4.78;;;-3.30;99.90;;;;;;5083843;28;20064;-34
2023/12/03 06:33:49;;;;;;;5.85;5.28;;;-3.30;99.90;;;;;;5081207;28;20035;-30
2023/12/03 06:36:14;;;;;;;8.57;5.55;;;-3.30;99.90;;;;;;5089170;28;20091;-31
2023/12/03 06:38:40;;;;;;;9.60;6.20;;;-3.30;99.90;;;;;;5085334;28;20028;-30
2023/12/03 06:41:06;;;;;;;8.93;5.28;;;-3.30;99.90;;;;;;5079125;28;20437;-31
2023/12/03 06:43:35;;;;;;;9.40;6.20;;;-3.40;99.90;;;;;;5088329;28;20084;-30
2023/12/03 06:46:01;;;;;;;7.75;5.47;;;-3.30;99.90;;;;;;5079450;28;20382;-33
2023/12/03 06:48:27;;;;;;;10.23;6.80;;;-3.40;99.90;;;;;;5083815;28;20032;-32
2023/12/03 06:50:53;;;;;;;8.98;6.57;;;-3.40;99.90;;;;;;5084658;28;20024;-30
2023/12/03 06:53:19;;;;;;;7.43;5.35;;;-3.30;99.90;;;;;;5082799;28;20583;-31
2023/12/03 06:55:44;;;;;;;9.57;6.00;;;-3.30;99.90;;;;;;5082944;28;20032;-31
2023/12/03 06:58:11;;;;;;;6.95;5.03;;;-3.30;99.90;;;;;;5077092;28;20047;-29
2023/12/03 07:00:37;;;;;;;5.15;4.63;;;-3.40;99.90;;;;;;5079879;28;20742;-33
2023/12/03 07:03:03;;;;;;;8.73;5.53;;;-3.40;99.90;;;;;;5085079;28;20100;-30
2023/12/03 07:05:29;;;;;;;8.18;5.45;;;-3.40;99.90;;;;;;5085778;28;20437;-30
2023/12/03 07:07:55;;;;;;;7.05;5.03;;;-3.30;99.90;;;;;;5085272;28;20028;-30
2023/12/03 07:10:20;;;;;;;9.35;6.03;;;-3.30;99.90;;;;;;5082951;28;20013;-30
2023/12/03 07:12:46;;;;;;;4.22;3.85;;;-3.30;99.90;;;;;;5079230;28;20043;-31
2023/12/03 07:15:12;;;;;;;12.52;6.80;;;-3.40;99.90;;;;;;5092635;28;20024;-31
2023/12/03 07:17:41;;;;;;;6.93;5.85;;;-3.40;99.90;;;;;;5087717;28;20085;-39
2023/12/03 07:20:08;;;;;;;6.70;4.72;;;-3.30;99.90;;;;;;5079426;28;20044;-39
2023/12/03 07:22:33;;;;;;;4.95;4.50;;;-3.30;99.90;;;;;;5077349;28;20020;-40
2023/12/03 07:24:59;;;;;;;6.88;4.88;;;-3.30;99.90;;;;;;5078344;28;20393;-39
2023/12/03 07:27:25;;;;;;;9.43;6.88;;;-3.30;99.90;;;;;;5080989;28;20105;-41
2023/12/03 07:29:56;;;;;;;8.85;5.72;;;-3.30;99.90;;;;;;5078581;28;20047;-41
2023/12/03 07:32:23;;;;;;;8.82;6.28;;;-3.30;99.90;;;;;;5083592;28;20033;-35
2023/12/03 07:34:49;;;;;;;10.07;7.10;;;-3.30;99.90;;;;;;5084426;28;20030;-38
2023/12/03 07:37:15;;;;;;;9.50;6.07;;;-3.30;99.90;;;;;;5083999;28;20032;-32
2023/12/03 07:39:41;;;;;;;8.45;6.13;;;-3.30;99.90;;;;;;5076503;28;20089;-32
2023/12/03 07:42:06;;;;;;;12.73;6.75;;;-3.30;99.90;;;;;;5083866;28;20500;-34
2023/12/03 07:44:32;;;;;;;8.02;5.88;;;-3.30;99.90;;;;;;5082624;28;20114;-33
2023/12/03 07:46:58;;;;;;;4.82;4.40;;;-3.30;99.90;;;;;;5088807;28;20035;-32
2023/12/03 07:49:24;;;;;;;8.50;6.00;;;-3.30;99.90;;;;;;5075992;28;20056;-34
2023/12/03 07:51:50;;;;;;;7.47;6.00;;;-3.30;99.90;;;;;;5081996;28;20024;-33
2023/12/03 07:54:17;;;;;;;11.95;7.75;;;-3.30;99.90;;;;;;5084818;28;20051;-36
2023/12/03 07:56:43;;;;;;;11.02;6.75;;;-3.30;99.90;;;;;;5076610;28;20484;-32
2023/12/03 07:59:09;;;;;;;7.45;5.60;;;-3.30;99.90;;;;;;5072543;28;20112;-35
2023/12/03 08:01:35;;;;;;;7.88;6.28;;;-3.20;99.90;;;;;;5073942;27;20029;-35
2023/12/03 08:04:03;;;;;;;7.32;6.55;;;-3.30;99.90;;;;;;5072423;28;20052;-37
2023/12/03 08:06:29;;;;;;;10.65;7.03;;;-3.20;99.90;;;;;;5076667;28;20035;-32
2023/12/03 08:08:55;;;;;;;8.43;6.18;;;-3.30;99.90;;;;;;5075578;28;20029;-32
2023/12/03 08:11:21;;;;;;;7.38;5.30;;;-3.30;99.90;;;;;;5074127;28;20081;-38
2023/12/03 08:13:46;;;;;;;4.88;4.40;;;-3.30;99.90;;;;;;5079107;28;20485;-33
2023/12/03 08:16:12;;;;;;;7.10;5.07;;;-3.40;99.90;;;;;;5074302;28;20383;-33
2023/12/03 08:18:38;;;;;;;9.15;6.22;;;-3.40;99.90;;;;;;5077024;28;20043;-32
2023/12/03 08:21:05;;;;;;;8.05;6.38;;;-3.50;99.90;;;;;;5074691;28;20050;-31
2023/12/03 08:23:34;;;;;;;10.10;6.68;;;-3.50;99.90;;;;;;5070924;28;20032;-32
2023/12/03 08:26:01;;;;;;;7.45;6.72;;;-3.50;99.90;;;;;;5077917;28;20583;-32
2023/12/03 08:28:27;;;;;;;7.93;5.55;;;-3.50;99.90;;;;;;5076117;28;20028;-42
2023/12/03 08:30:53;;;;;;;11.88;7.05;;;-3.40;99.90;;;;;;5078024;27;20590;-38
2023/12/03 08:33:18;;;;;;;9.52;7.60;;;-3.50;99.90;;;;;;5073970;28;20596;-38
2023/12/03 08:35:44;;;;;;;10.63;7.82;;;-3.40;99.90;;;;;;5075087;28;22281;-40
2023/12/03 08:38:10;;;;;;;7.25;5.05;;;-3.50;99.90;;;;;;5077552;28;21738;-32
2023/12/03 08:40:36;;;;;;;10.43;8.25;;;-3.60;99.90;;;;;;5076197;28;20024;-32
2023/12/03 08:43:01;;;;;;;12.15;7.22;;;-3.50;99.90;;;;;;5079018;28;20630;-35
2023/12/03 08:45:27;;;;;;;7.68;6.32;;;-3.60;99.90;;;;;;5077850;28;20798;-32
2023/12/03 08:47:53;;;;;;;10.23;6.70;;;-3.50;99.90;;;;;;5084750;28;20031;-35
2023/12/03 08:50:18;;;;;;;12.38;5.32;;;-3.60;99.90;;;;;;5072874;28;20032;-32
2023/12/03 08:52:44;;;;;;;9.73;6.55;;;-3.70;99.90;;;;;;5079020;28;20020;-32
2023/12/03 08:55:10;;;;;;;10.13;7.22;;;-3.60;99.90;;;;;;5083620;28;20044;-32
2023/12/03 08:57:36;;;;;;;7.45;6.63;;;-3.60;99.90;;;;;;5076633;28;20353;-35
2023/12/03 09:00:07;;;;;;;11.32;7.18;;;-3.60;99.90;;;;;;5088774;28;20570;-33
2023/12/03 09:02:33;;;;;;;11.90;9.02;;;-3.70;99.90;;;;;;5083427;28;20119;-36
2023/12/03 09:04:59;;;;;;;7.82;6.05;;;-3.60;99.90;;;;;;5091600;28;20107;-32
2023/12/03 09:07:24;;;;;;;7.30;6.60;;;-3.60;99.90;;;;;;5085175;28;20032;-33
2023/12/03 09:09:50;;;;;;;6.00;5.43;;;-3.50;99.90;;;;;;5086734;28;20024;-33
2023/12/03 09:12:17;;;;;;;6.70;5.95;;;-3.50;99.90;;;;;;5086470;28;20038;-34
2023/12/03 09:14:43;;;;;;;7.25;5.68;;;-3.50;99.90;;;;;;5078183;28;20474;-32
2023/12/03 09:17:09;;;;;;;8.93;6.50;;;-3.40;99.90;;;;;;5077637;28;20029;-36
2023/12/03 09:19:34;;;;;;;11.65;7.25;;;-3.40;99.90;;;;;;5090729;28;20081;-33
2023/12/03 09:22:00;;;;;;;9.60;7.25;;;-3.40;99.90;;;;;;5085335;28;20048;-34
2023/12/03 09:24:26;;;;;;;7.85;5.85;;;-3.40;99.90;;;;;;5082984;28;20525;-33
2023/12/03 09:26:52;;;;;;;9.48;6.93;;;-3.50;99.90;;;;;;5087597;28;20043;-32
2023/12/03 09:29:17;;;;;;;7.65;6.00;;;-3.40;99.90;;;;;;5085608;28;20724;-35
2023/12/03 09:31:43;;;;;;;10.20;5.70;;;-3.40;99.90;;;;;;5083470;28;20032;-31
2023/12/03 09:34:09;;;;;;;9.75;6.82;;;-3.40;99.90;;;;;;5084290;28;20448;-35
2023/12/03 09:36:35;;;;;;;9.43;6.45;;;-3.50;99.90;;;;;;5092447;28;20028;-37
2023/12/03 09:39:01;;;;;;;11.05;6.85;;;-3.40;99.90;;;;;;5083897;28;20028;-34
2023/12/03 09:41:33;;;;;;;10.82;6.75;;;-3.40;99.90;;;;;;5081751;28;20501;-32
2023/12/03 09:44:01;;;;;;;11.10;5.38;;;-3.40;99.90;;;;;;5086347;28;20044;-32
2023/12/03 09:46:32;;;;;;;8.02;6.25;;;-3.50;99.90;;;;;;5082690;28;20028;-32
2023/12/03 09:49:03;;;;;;;6.10;5.43;;;-3.50;99.90;;;;;;5079413;28;20028;-40
2023/12/03 09:51:31;;;;;;;9.70;5.65;;;-3.40;99.90;;;;;;5082119;28;20043;-36
2023/12/03 09:53:59;;;;;;;10.43;6.75;;;-3.40;99.90;;;;;;5084455;28;20091;-40
2023/12/03 09:56:27;;;;;;;12.38;8.45;;;-3.30;99.90;;;;;;5078651;28;20489;-38
2023/12/03 09:58:53;;;;;;;9.13;6.82;;;-3.40;99.90;;;;;;5084025;28;20771;-40
2023/12/03 10:01:22;;;;;;;8.68;6.13;;;-3.30;99.90;;;;;;5083037;27;20055;-39
2023/12/03 10:03:51;;;;;;;8.68;5.50;;;-3.30;99.90;;;;;;5084321;28;20107;-40
2023/12/03 10:06:21;;;;;;;5.88;4.75;;;-3.30;99.90;;;;;;5083041;28;20036;-37
2023/12/03 10:08:49;;;;;;;7.20;5.05;;;-3.30;99.90;;;;;;5085269;28;20039;-39
2023/12/03 10:11:21;;;;;;;7.32;4.28;;;-3.30;99.90;;;;;;5082592;28;20047;-39
2023/12/03 10:13:50;;;;;;;9.45;5.97;;;-3.30;99.90;;;;;;5081592;28;20063;-38
2023/12/03 10:16:16;;;;;;;6.55;4.38;;;-3.20;99.90;;;;;;5085964;28;20036;-39
2023/12/03 10:18:43;;;;;;;6.80;5.07;;;-3.20;99.90;;;;;;5083839;28;20040;-39
2023/12/03 10:21:09;;;;;;;9.50;5.63;;;-3.20;99.90;;;;;;5080728;28;20135;-36
2023/12/03 10:23:36;;;;;;;6.70;5.70;;;-3.20;99.90;;;;;;5085285;28;20116;-37
2023/12/03 10:26:15;;;;;;;6.88;5.00;;;-3.20;99.90;;;;;;5082686;28;20032;-38
2023/12/03 10:28:41;;;;;;;6.22;5.05;;;-3.20;99.90;;;;;;5083468;28;20016;-39
2023/12/03 10:31:14;;;;;;;7.60;6.57;;;-3.10;99.90;;;;;;5081890;28;20032;-39
2023/12/03 10:33:42;;;;;;;9.32;6.03;;;-3.10;99.90;;;;;;5086913;28;20052;-39
2023/12/03 10:36:09;;;;;;;7.45;5.65;;;-3.10;99.90;;;;;;5073943;28;20040;-39
2023/12/03 10:38:39;;;;;;;8.77;5.75;;;-3.10;99.90;;;;;;5082828;28;20028;-39
2023/12/03 10:41:07;;;;;;;6.35;5.75;;;-3.10;99.90;;;;;;5082266;28;20028;-40
2023/12/03 10:43:40;;;;;;;9.27;6.22;;;-3.10;99.90;;;;;;5079440;28;20028;-40
2023/12/03 10:46:10;;;;;;;7.85;5.95;;;-3.00;99.90;;;;;;5083031;28;20039;-39
2023/12/03 10:48:36;;;;;;;13.40;7.88;;;-3.10;99.90;;;;;;5083191;28;20294;-40
2023/12/03 10:51:10;;;;;;;11.63;7.15;;;-3.00;99.90;;;;;;5077476;28;20031;-39
2023/12/03 10:53:37;;;;;;;8.43;5.38;;;-3.00;99.90;;;;;;5084873;28;20384;-38
2023/12/03 10:56:05;;;;;;;8.32;5.93;;;-2.90;99.90;;;;;;5086197;28;20602;-40
2023/12/03 10:58:32;;;;;;;5.93;5.00;;;-2.90;99.90;;;;;;5083890;28;20036;-34
2023/12/03 11:01:08;;;;;;;9.02;6.88;;;-2.90;99.90;;;;;;5083221;27;20040;-33
2023/12/03 11:03:54;;;;;;;9.93;5.50;;;-2.90;99.90;;;;;;5082869;28;20039;-33
2023/12/03 11:06:22;;;;;;;7.25;5.43;;;-2.90;99.90;;;;;;5074679;28;20108;-33
2023/12/03 11:08:51;;;;;;;4.85;4.38;;;-2.80;99.90;;;;;;5082834;28;20039;-32
2023/12/03 11:11:17;;;;;;;;;;;-2.80;99.90;;;;;;5086952;28;20043;-34
2023/12/03 11:13:43;;;;;;;7.20;5.32;;;-2.80;99.90;;;;;;5083684;28;19908;-35
2023/12/03 11:16:11;;;;;;;8.02;5.07;;;-2.80;99.90;;;;;;5083672;28;20393;-32
2023/12/03 11:19:01;;;;;;;10.50;6.30;;;-2.80;99.90;;;;;;5069503;28;20039;-37
2023/12/03 11:21:50;;;;;;;7.13;5.53;;;-2.80;99.90;;;;;;5069168;28;20294;-34
2023/12/03 11:24:24;;;;;;;6.43;5.05;;;-2.70;99.90;;;;;;5067972;28;20452;-38
2023/12/03 11:26:50;;;;;;;13.68;6.10;;;-2.60;99.90;;;;;;5069712;28;20565;-35
2023/12/03 11:29:16;;;;;;;7.40;5.55;;;-2.70;99.90;;;;;;5072241;28;20108;-34
2023/12/03 11:31:42;;;;;;;7.30;6.00;;;-2.70;99.90;;;;;;5069151;27;20067;-32
2023/12/03 11:34:10;;;;;;;5.50;4.95;;;-2.70;99.90;;;;;;5074595;28;20060;-32
2023/12/03 11:36:45;;;;;;;7.03;5.68;;;-2.60;99.90;;;;;;5072612;28;20100;-33
2023/12/03 11:39:11;;;;;;;7.03;5.80;;;-2.60;99.90;;;;;;5068293;28;20146;-33
2023/12/03 11:41:42;;;;;;;7.72;6.47;;;-2.50;99.90;;;;;;5073724;28;20039;-33
2023/12/03 11:44:22;;;;;;;8.95;6.43;;;-2.50;99.90;;;;;;5072203;28;20066;-32
2023/12/03 11:47:01;;;;;;;10.20;6.55;;;-2.50;99.90;;;;;;5073466;28;20404;-36
2023/12/03 11:49:28;;;;;;;7.43;5.93;;;-2.50;99.90;;;;;;5076280;28;20033;-33
2023/12/03 11:51:54;;;;;;;8.00;5.55;;;-2.50;99.90;;;;;;5078059;28;20500;-32
2023/12/03 11:54:25;;;;;;;6.30;5.35;;;-2.50;99.90;;;;;;5073601;28;20024;-32
2023/12/03 11:56:52;;;;;;;9.15;6.43;;;-2.40;99.90;;;;;;5079531;28;20036;-31
2023/12/03 11:59:18;;;;;;;6.18;4.38;;;-2.50;99.90;;;;;;5074771;28;20768;-33
2023/12/03 12:01:44;;;;;;;6.88;5.32;;;-2.40;99.90;;;;;;5082844;28;20043;-30
2023/12/03 12:04:20;;;;;;;6.75;5.68;;;-2.40;99.90;;;;;;5086102;28;20473;-33
2023/12/03 12:06:45;;;;;;;8.05;5.35;;;-2.40;99.90;;;;;;5073475;28;20028;-31
2023/12/03 12:09:12;;;;;;;5.80;4.78;;;-2.40;99.90;;;;;;5075152;28;20550;-32
2023/12/03 12:11:38;;;;;;;7.55;4.60;;;-2.40;99.90;;;;;;5077059;28;20028;-35
2023/12/03 12:14:03;;;;;;;9.10;5.95;;;-2.40;99.90;;;;;;5073048;28;20028;-31
2023/12/03 12:16:29;;;;;;;11.35;7.10;;;-2.30;99.90;;;;;;5076901;28;20028;-31
2023/12/03 12:18:55;;;;;;;8.75;5.93;;;-2.30;99.90;;;;;;5075854;28;20123;-33
2023/12/03 12:21:21;;;;;;;10.05;6.97;;;-2.30;99.90;;;;;;5075967;28;20489;-34
2023/12/03 12:23:47;;;;;;;10.93;6.47;;;-2.30;99.90;;;;;;5075292;28;20067;-32
2023/12/03 12:26:13;;;;;;;8.85;5.88;;;-2.30;99.90;;;;;;5074048;28;20071;-31
2023/12/03 12:28:38;;;;;;;11.65;6.80;;;-2.30;99.90;;;;;;5074890;28;20481;-33
2023/12/03 12:31:05;;;;;;;9.43;6.57;;;-2.30;99.90;;;;;;5084373;28;20561;-32
2023/12/03 12:33:31;;;;;;;11.27;6.97;;;-2.20;99.90;;;;;;5082053;28;20052;-33
2023/12/03 12:36:01;;;;;;;8.32;6.82;;;-2.20;99.90;;;;;;5087312;28;20070;-34
2023/12/03 12:38:26;;;;;;;7.68;5.78;;;-2.20;99.90;;;;;;5081603;28;20093;-32
2023/12/03 12:40:54;;;;;;;11.88;5.80;;;-2.20;99.90;;;;;;5073000;28;20032;-32
2023/12/03 12:43:23;;;;;;;6.55;5.22;;;-2.10;99.90;;;;;;5080677;28;20071;-33